Time;durP1;ratioP1;P1;durP2;ratioP2;P2;SDS_P1;SDS_P2;PMS_P1;PMS_P2;Temp;Humidity;BMP_temperature;BMP_pressure;BME280_temperature;BME280_humidity;BME280_pressure;Samples;Min_cycle;Max_cycle;Signal;HPM_P1;HPM_P2
2022/08/17 00:00:31;;;;;;;14.80;12.65;;;;;;;23.65;50.91;100050.38;4975393;28;20038;-74
2022/08/17 00:03:08;;;;;;;14.30;13.30;;;;;;;23.62;51.43;100049.63;4975559;28;20132;-73
2022/08/17 00:05:47;;;;;;;13.85;12.80;;;;;;;23.57;51.17;100043.69;4975560;28;20047;-74
2022/08/17 00:08:14;;;;;;;12.55;11.68;;;;;;;23.57;51.24;100049.06;4972210;28;20174;-74
2022/08/17 00:10:42;;;;;;;12.52;11.52;;;;;;;23.60;50.62;100046.16;4975422;28;20125;-73
2022/08/17 00:13:14;;;;;;;14.48;13.48;;;;;;;23.53;51.28;100041.31;4975357;28;20493;-73
2022/08/17 00:15:40;;;;;;;13.60;12.60;;;;;;;23.53;51.17;100044.88;4971842;28;20039;-73
2022/08/17 00:18:05;;;;;;;13.68;12.77;;;;;;;23.50;51.71;100045.09;4975359;28;20035;-74
2022/08/17 00:20:31;;;;;;;14.30;13.10;;;;;;;23.45;51.83;100047.22;4975359;28;20042;-73
2022/08/17 00:23:05;;;;;;;13.63;12.63;;;;;;;23.44;51.96;100044.63;4975214;28;20038;-73
2022/08/17 00:25:30;;;;;;;13.13;12.23;;;;;;;23.41;51.59;100041.16;4975313;28;20092;-73
2022/08/17 00:27:56;;;;;;;13.07;12.27;;;;;;;23.40;51.07;100041.28;4975238;28;20046;-73
2022/08/17 00:30:21;;;;;;;13.50;12.40;;;;;;;23.41;51.01;100046.56;4975200;28;20064;-74
2022/08/17 00:32:46;;;;;;;13.10;12.10;;;;;;;23.36;51.33;100045.13;4974760;28;20516;-73
2022/08/17 00:35:17;;;;;;;12.90;12.00;;;;;;;23.34;51.13;100047.94;4975172;28;20795;-74
2022/08/17 00:37:42;;;;;;;14.57;13.57;;;;;;;23.30;51.28;100043.72;4975092;28;20046;-73
2022/08/17 00:40:11;;;;;;;12.73;11.73;;;;;;;23.32;51.22;100041.78;4974536;28;20035;-73
2022/08/17 00:42:37;;;;;;;13.02;12.13;;;;;;;23.35;51.17;100041.59;4973482;28;20049;-73
2022/08/17 00:45:04;;;;;;;15.73;12.00;;;;;;;23.28;51.70;100047.47;4975006;28;20090;-73
2022/08/17 00:47:29;;;;;;;14.00;13.00;;;;;;;23.24;51.90;100049.53;4973827;28;20480;-73
2022/08/17 00:49:55;;;;;;;14.02;12.88;;;;;;;23.18;51.90;100050.78;4974434;28;20129;-73
2022/08/17 00:52:24;;;;;;;13.30;12.20;;;;;;;23.22;51.55;100053.28;4974590;28;20050;-73
2022/08/17 00:54:53;;;;;;;13.02;12.07;;;;;;;23.32;51.63;100049.88;4973607;28;20045;-73
2022/08/17 00:57:23;;;;;;;14.38;13.27;;;;;;;23.39;50.85;100055.69;4974754;28;20114;-74
2022/08/17 00:59:54;;;;;;;13.45;12.48;;;;;;;23.43;50.36;100046.47;4974631;28;20049;-74
2022/08/17 01:02:21;;;;;;;12.95;11.88;;;;;;;23.38;51.37;100044.06;4974443;28;20046;-74
2022/08/17 01:04:49;;;;;;;14.23;13.07;;;;;;;23.34;51.47;100047.94;4973487;28;20105;-74
2022/08/17 01:07:16;;;;;;;13.35;12.13;;;;;;;23.31;51.58;100047.28;4974629;28;20469;-74
2022/08/17 01:09:43;;;;;;;14.35;13.35;;;;;;;23.37;51.93;100049.53;4974480;28;20062;-73
2022/08/17 01:12:10;;;;;;;14.50;13.05;;;;;;;23.41;51.87;100043.84;4974103;28;20412;-73
2022/08/17 01:14:36;;;;;;;14.30;13.15;;;;;;;23.36;52.32;100046.00;4974458;28;20039;-73
2022/08/17 01:17:02;;;;;;;13.85;12.95;;;;;;;23.27;52.18;100043.06;4974443;28;20108;-74
2022/08/17 01:19:33;;;;;;;14.27;13.38;;;;;;;23.12;52.77;100043.13;4975083;28;20561;-73
2022/08/17 01:22:10;;;;;;;14.00;13.00;;;;;;;22.97;52.68;100050.34;4974223;28;20685;-73
2022/08/17 01:24:40;;;;;;;14.18;13.02;;;;;;;22.99;52.30;100052.97;4974223;28;20353;-73
2022/08/17 01:27:08;;;;;;;13.75;12.65;;;;;;;22.94;52.58;100049.66;4974203;28;20055;-72
2022/08/17 01:29:37;;;;;;;14.57;13.35;;;;;;;22.79;52.69;100042.59;4974139;28;20557;-74
2022/08/17 01:32:05;;;;;;;14.65;13.55;;;;;;;22.66;52.80;100055.97;4973792;28;20507;-73
2022/08/17 01:34:31;;;;;;;13.32;12.23;;;;;;;22.59;52.91;100058.19;4973985;28;20414;-73
2022/08/17 01:36:57;;;;;;;16.45;15.25;;;;;;;22.57;53.37;100060.09;4974144;28;20437;-73
2022/08/17 01:39:31;;;;;;;16.95;15.85;;;;;;;22.57;54.45;100061.94;4973263;28;20497;-73
2022/08/17 01:42:08;;;;;;;16.85;15.48;;;;;;;22.49;56.33;100059.75;4973560;28;20037;-74
2022/08/17 01:44:33;;;;;;;15.90;14.55;;;;;;;22.46;55.11;100060.78;4972764;28;20039;-73
2022/08/17 01:46:59;;;;;;;14.93;14.02;;;;;;;22.42;54.90;100058.38;4973443;28;20046;-73
2022/08/17 01:49:24;;;;;;;16.25;15.02;;;;;;;22.39;55.12;100064.81;4974029;28;20038;-74
2022/08/17 01:51:50;;;;;;;15.43;14.32;;;;;;;22.17;57.70;100065.28;4975383;28;20456;-73
2022/08/17 01:54:17;;;;;;;15.60;14.43;;;;;;;21.97;58.00;100068.31;4973755;28;20448;-73
2022/08/17 01:56:47;;;;;;;14.18;13.18;;;;;;;21.74;60.13;100067.00;4973335;28;20037;-73
2022/08/17 01:59:13;;;;;;;15.73;14.52;;;;;;;21.75;58.11;100064.25;4970126;28;20042;-74
2022/08/17 02:01:39;;;;;;;15.60;14.60;;;;;;;21.80;57.39;100064.81;4973235;28;20452;-73
2022/08/17 02:04:07;;;;;;;16.05;14.95;;;;;;;21.82;56.69;100060.22;4973451;28;20112;-73
2022/08/17 02:06:38;;;;;;;17.88;16.45;;;;;;;21.86;56.40;100061.75;4973383;28;20517;-73
2022/08/17 02:09:05;;;;;;;18.77;17.40;;;;;;;21.89;55.82;100064.25;4969643;28;20031;-73
2022/08/17 02:11:33;;;;;;;18.67;17.48;;;;;;;21.89;56.03;100060.72;4973282;28;20042;-73
2022/08/17 02:13:58;;;;;;;17.55;16.33;;;;;;;21.88;55.09;100070.59;4973358;28;20121;-73
2022/08/17 02:16:24;;;;;;;18.52;17.17;;;;;;;21.90;54.98;100067.81;4973253;28;20122;-74
2022/08/17 02:18:49;;;;;;;18.67;17.13;;;;;;;21.87;55.03;100068.00;4973023;28;20035;-74
2022/08/17 02:21:14;;;;;;;20.00;18.65;;;;;;;21.82;54.91;100065.59;4976161;28;20056;-73
2022/08/17 02:23:44;;;;;;;20.50;19.15;;;;;;;21.74;55.47;100067.00;4973122;28;20450;-73
2022/08/17 02:26:10;;;;;;;17.08;16.00;;;;;;;21.63;55.82;100064.97;4971823;28;20051;-74
2022/08/17 02:28:35;;;;;;;18.23;16.92;;;;;;;21.54;56.35;100057.47;4973116;28;20088;-74
2022/08/17 02:31:11;;;;;;;18.08;16.95;;;;;;;21.38;57.70;100066.41;4971579;28;20090;-73
2022/08/17 02:33:37;;;;;;;17.17;15.82;;;;;;;21.25;57.40;100054.63;4971762;28;20056;-73
2022/08/17 02:36:04;;;;;;;16.73;15.52;;;;;;;21.19;58.20;100060.34;4973177;28;20101;-74
2022/08/17 02:38:30;;;;;;;18.27;16.95;;;;;;;21.09;58.05;100064.50;4972893;28;20042;-73
2022/08/17 02:40:59;;;;;;;15.75;14.55;;;;;;;21.08;57.72;100062.78;4972720;28;20062;-72
2022/08/17 02:43:26;;;;;;;15.15;13.95;;;;;;;20.87;58.09;100057.66;4969191;28;20042;-73
2022/08/17 02:45:52;;;;;;;13.90;12.95;;;;;;;20.79;58.41;100059.94;4972673;28;20041;-73
2022/08/17 02:48:17;;;;;;;14.63;13.63;;;;;;;20.74;58.81;100064.69;4971443;28;20409;-73
2022/08/17 02:50:42;;;;;;;13.52;12.63;;;;;;;20.65;58.70;100065.22;4972935;28;20425;-73
2022/08/17 02:53:08;;;;;;;14.43;13.43;;;;;;;20.60;59.22;100067.28;4972472;28;20482;-74
2022/08/17 02:55:37;;;;;;;13.13;12.02;;;;;;;20.59;59.12;100071.75;4972641;28;20508;-73
2022/08/17 02:58:03;;;;;;;13.82;12.82;;;;;;;20.57;58.88;100077.22;4972621;28;20035;-73
2022/08/17 03:00:40;;;;;;;14.68;13.48;;;;;;;20.57;59.47;100076.34;4972475;28;20042;-73
2022/08/17 03:03:06;;;;;;;13.90;12.80;;;;;;;20.54;59.49;100069.34;4972267;28;20481;-73
2022/08/17 03:05:35;;;;;;;13.90;12.70;;;;;;;20.47;59.21;100069.72;4972452;28;20489;-73
2022/08/17 03:08:02;;;;;;;14.88;13.18;;;;;;;20.34;59.69;100070.38;4972489;28;20493;-73
2022/08/17 03:10:28;;;;;;;13.23;12.23;;;;;;;20.20;60.98;100067.59;4971772;28;20485;-73
2022/08/17 03:12:54;;;;;;;13.90;12.35;;;;;;;20.10;60.56;100064.53;4972105;28;20516;-73
2022/08/17 03:15:26;;;;;;;13.02;11.57;;;;;;;20.02;61.62;100065.88;4972264;28;20043;-74
2022/08/17 03:17:52;;;;;;;13.38;12.10;;;;;;;19.94;61.69;100060.94;4972384;28;20039;-73
2022/08/17 03:20:19;;;;;;;12.35;11.25;;;;;;;19.89;62.16;100060.31;4973558;28;20030;-73
2022/08/17 03:22:47;;;;;;;12.90;11.80;;;;;;;19.82;62.04;100056.19;4972073;28;20053;-73
2022/08/17 03:25:16;;;;;;;12.27;11.30;;;;;;;19.77;62.65;100052.91;4971100;28;20077;-73
2022/08/17 03:27:41;;;;;;;12.02;10.88;;;;;;;19.63;62.76;100056.25;4972164;28;20042;-73
2022/08/17 03:30:09;;;;;;;11.13;10.18;;;;;;;19.62;62.89;100058.06;4972204;28;20400;-73
2022/08/17 03:32:46;;;;;;;11.50;10.55;;;;;;;19.57;63.66;100056.56;4970723;28;20054;-74
2022/08/17 03:35:14;;;;;;;12.23;10.95;;;;;;;19.56;63.16;100057.50;4969371;28;20134;-74
2022/08/17 03:37:40;;;;;;;11.00;9.90;;;;;;;19.57;63.14;100060.13;4972130;28;20031;-73
2022/08/17 03:40:07;;;;;;;11.38;10.45;;;;;;;19.53;63.48;100063.03;4972052;28;20045;-73
2022/08/17 03:42:34;;;;;;;13.20;10.00;;;;;;;19.57;63.22;100059.22;4971743;28;20042;-73
2022/08/17 03:45:01;;;;;;;11.85;10.75;;;;;;;19.52;63.77;100050.56;4968121;28;20133;-73
2022/08/17 03:58:10;;;;;;;11.05;10.15;;;;;;;19.62;63.32;100058.06;4971639;28;20122;-75
2022/08/17 04:00:36;;;;;;;12.02;10.82;;;;;;;19.63;62.93;100065.16;4971743;28;20138;-75
2022/08/17 04:03:02;;;;;;;11.70;10.80;;;;;;;19.62;63.55;100063.44;4971753;28;20041;-75
2022/08/17 04:05:29;;;;;;;11.45;10.43;;;;;;;19.57;63.37;100054.75;4972005;28;20066;-75
2022/08/17 04:07:55;;;;;;;11.15;10.15;;;;;;;19.55;63.77;100061.13;4971768;28;20050;-74
2022/08/17 04:10:20;;;;;;;12.43;11.20;;;;;;;19.54;63.48;100060.25;4971698;28;20473;-74
2022/08/17 04:12:53;;;;;;;12.57;11.10;;;;;;;19.56;63.93;100061.03;4970244;28;20494;-73
2022/08/17 04:15:20;;;;;;;11.20;10.30;;;;;;;19.61;63.72;100067.03;4969067;28;20045;-73
2022/08/17 04:17:46;;;;;;;11.43;10.40;;;;;;;19.65;63.33;100063.25;4970406;28;20062;-74
2022/08/17 04:20:13;;;;;;;14.88;11.15;;;;;;;19.67;62.76;100065.88;4975161;28;20066;-74
2022/08/17 04:22:53;;;;;;;13.32;10.82;;;;;;;19.66;63.21;100065.03;4974984;28;20034;-73
2022/08/17 04:25:19;;;;;;;12.65;10.43;;;;;;;19.65;63.24;100065.94;4975207;28;20118;-73
2022/08/17 04:27:44;;;;;;;14.23;11.13;;;;;;;19.68;62.90;100073.00;4975286;28;20121;-74
2022/08/17 04:30:10;;;;;;;14.05;11.93;;;;;;;19.69;62.99;100070.22;4974503;28;20047;-74
2022/08/17 04:32:54;;;;;;;12.23;11.02;;;;;;;19.70;63.19;100073.75;4974229;28;20046;-74
2022/08/17 04:35:22;;;;;;;11.50;10.55;;;;;;;19.70;63.07;100073.75;4971489;28;20503;-74
2022/08/17 04:37:49;;;;;;;11.70;10.65;;;;;;;19.76;62.95;100067.25;4974865;28;20096;-74
2022/08/17 04:43:01;;;;;;;12.63;11.35;;;;;;;19.83;62.92;100076.66;4974399;28;20065;-73
2022/08/17 04:45:26;;;;;;;12.65;11.00;;;;;;;19.86;62.40;100080.06;4973089;28;20672;-74
2022/08/17 04:47:52;;;;;;;13.02;11.77;;;;;;;19.89;62.53;100084.41;4974878;28;20070;-73
2022/08/17 04:50:17;;;;;;;13.20;11.95;;;;;;;19.84;63.34;100089.13;4977508;28;20038;-74
2022/08/17 04:52:45;;;;;;;12.35;11.00;;;;;;;19.79;63.85;100096.53;4974228;28;20047;-73
2022/08/17 04:55:11;;;;;;;11.95;10.85;;;;;;;19.88;63.00;100098.72;4974229;28;20122;-73
2022/08/17 04:57:36;;;;;;;12.75;11.55;;;;;;;19.95;63.62;100102.81;4974520;28;20113;-73
2022/08/17 05:00:03;;;;;;;13.00;11.63;;;;;;;19.91;63.06;100095.88;4974505;28;20058;-73
2022/08/17 05:02:28;;;;;;;14.23;12.75;;;;;;;20.03;62.67;100094.38;4973061;28;20045;-74
2022/08/17 05:04:54;;;;;;;14.55;13.25;;;;;;;20.13;62.10;100096.50;4974432;28;20031;-74
2022/08/17 05:07:19;;;;;;;15.52;11.82;;;;;;;20.28;61.83;100100.19;4974515;28;20058;-74
2022/08/17 05:09:44;;;;;;;12.32;11.18;;;;;;;20.41;61.39;100100.41;4974018;28;20046;-73
2022/08/17 05:12:10;;;;;;;13.48;12.35;;;;;;;20.51;61.66;100101.66;4972750;28;20062;-73
2022/08/17 05:14:38;;;;;;;13.63;12.38;;;;;;;20.61;61.56;100093.13;4972832;28;20105;-74
2022/08/17 05:17:03;;;;;;;13.20;12.00;;;;;;;20.73;61.06;100089.78;4972469;28;20498;-74
2022/08/17 05:19:28;;;;;;;14.50;12.20;;;;;;;20.88;60.59;100096.97;4972835;28;20050;-74
2022/08/17 05:21:54;;;;;;;13.65;12.25;;;;;;;21.00;60.46;100098.94;4972274;28;20046;-73
2022/08/17 05:24:19;;;;;;;13.52;12.13;;;;;;;21.13;59.88;100098.25;4972925;28;20046;-74
2022/08/17 05:26:44;;;;;;;13.38;12.15;;;;;;;21.22;59.66;100095.03;4973189;28;20042;-73
2022/08/17 05:29:10;;;;;;;14.65;13.45;;;;;;;21.36;59.04;100094.28;4974084;28;20042;-72
2022/08/17 05:31:35;;;;;;;13.73;12.73;;;;;;;21.49;58.69;100094.47;4973571;28;20557;-74
2022/08/17 05:34:00;;;;;;;15.52;12.65;;;;;;;21.59;58.13;100091.13;4973287;28;20134;-74
2022/08/17 05:36:26;;;;;;;15.52;14.00;;;;;;;21.73;57.72;100092.16;4973477;28;20185;-74
2022/08/17 05:38:51;;;;;;;15.18;13.98;;;;;;;21.92;57.88;100097.28;4973766;28;20038;-74
2022/08/17 05:41:16;;;;;;;16.15;14.85;;;;;;;22.08;56.96;100096.25;4968297;28;20037;-74
2022/08/17 05:43:42;;;;;;;16.83;15.25;;;;;;;22.14;57.51;100097.72;4971736;28;20047;-74
2022/08/17 05:46:26;;;;;;;17.05;15.40;;;;;;;22.31;56.90;100092.19;4969165;28;20035;-74
2022/08/17 05:48:56;;;;;;;17.00;15.60;;;;;;;22.44;56.36;100096.81;4985155;23;20493;-72
2022/08/17 05:52:10;;;;;;;18.20;16.30;;;;;;;22.67;56.16;100104.28;4971894;28;20038;-73
2022/08/17 05:54:57;;;;;;;16.63;15.15;;;;;;;22.88;55.74;100099.38;4971485;28;20053;-72
2022/08/17 05:57:50;;;;;;;16.67;15.02;;;;;;;23.02;55.40;100101.19;4969251;28;20043;-73
2022/08/17 06:00:20;;;;;;;16.52;14.93;;;;;;;23.09;54.64;100102.53;4972270;28;20034;-72
2022/08/17 06:02:48;;;;;;;15.90;14.50;;;;;;;23.19;54.12;100108.19;4972986;28;20504;-73
2022/08/17 06:05:42;;;;;;;15.95;14.30;;;;;;;23.26;53.36;100103.25;4973508;28;20046;-73
2022/08/17 06:08:32;;;;;;;16.77;15.20;;;;;;;23.34;53.12;100096.41;4970949;28;20047;-72
2022/08/17 06:11:16;;;;;;;17.77;15.98;;;;;;;23.48;53.59;100098.19;4971029;28;20046;-72
2022/08/17 06:14:06;;;;;;;20.80;18.88;;;;;;;23.63;52.83;100107.94;4970157;28;20043;-72
2022/08/17 06:16:36;;;;;;;20.73;18.52;;;;;;;23.69;52.80;100112.03;4970311;28;20155;-73
2022/08/17 06:19:18;;;;;;;18.98;17.40;;;;;;;23.76;52.86;100115.19;4973342;28;20049;-73
2022/08/17 06:21:47;;;;;;;20.45;18.23;;;;;;;23.83;52.65;100120.06;4971604;28;20118;-73
2022/08/17 06:24:33;;;;;;;16.83;15.35;;;;;;;23.98;52.30;100118.19;4972736;28;20039;-72
2022/08/17 06:27:09;;;;;;;19.83;17.90;;;;;;;24.01;52.56;100120.66;4970861;28;20050;-73
2022/08/17 06:29:54;;;;;;;21.30;16.95;;;;;;;24.08;52.47;100122.91;4973017;28;20077;-72
2022/08/17 06:32:19;;;;;;;17.98;16.45;;;;;;;24.08;52.50;100126.50;4973007;28;20034;-73
2022/08/17 06:34:45;;;;;;;17.45;16.13;;;;;;;24.20;52.37;100116.69;4972990;28;20101;-73
2022/08/17 06:37:52;;;;;;;17.70;16.10;;;;;;;24.30;51.33;100116.91;4972996;28;20034;-73
2022/08/17 06:40:44;;;;;;;17.33;16.02;;;;;;;24.46;50.65;100123.00;4971882;28;20700;-73
2022/08/17 06:43:26;;;;;;;18.48;16.67;;;;;;;24.59;49.27;100113.06;4971854;28;20493;-73
2022/08/17 06:46:01;;;;;;;18.77;17.00;;;;;;;24.77;49.02;100121.66;4970759;28;20043;-73
2022/08/17 06:48:59;;;;;;;20.48;18.20;;;;;;;24.92;48.67;100128.66;4969273;28;20038;-73
2022/08/17 06:51:34;;;;;;;22.33;20.30;;;;;;;24.93;48.12;100127.69;4973243;28;20034;-73
2022/08/17 06:54:22;;;;;;;19.17;17.42;;;;;;;25.11;47.34;100125.47;4972675;28;20039;-73
2022/08/17 06:57:04;;;;;;;18.65;16.95;;;;;;;25.28;47.19;100132.41;4972686;28;20460;-73
2022/08/17 06:59:52;;;;;;;22.23;20.15;;;;;;;25.49;46.92;100129.94;4970365;28;20081;-73
2022/08/17 07:02:37;;;;;;;18.30;16.60;;;;;;;25.65;46.20;100124.25;4970292;28;20039;-73
2022/08/17 07:05:04;;;;;;;23.45;20.02;;;;;;;25.73;46.31;100126.38;4968425;28;20493;-73
2022/08/17 07:10:20;;;;;;;16.73;15.13;;;;;;;25.90;46.09;100125.09;4972352;28;20524;-73
2022/08/17 07:12:49;;;;;;;19.73;18.08;;;;;;;25.95;46.13;100121.06;4971656;28;20034;-73
2022/08/17 07:15:19;;;;;;;17.10;15.63;;;;;;;26.12;45.39;100111.66;4968728;28;20070;-73
2022/08/17 07:17:48;;;;;;;27.33;22.25;;;;;;;26.33;45.54;100119.94;4971820;28;20034;-73
2022/08/17 07:20:19;;;;;;;22.38;20.15;;;;;;;26.52;44.67;100113.97;4972504;28;20489;-73
2022/08/17 07:23:02;;;;;;;17.38;15.77;;;;;;;26.65;44.14;100119.25;4972010;28;20047;-73
2022/08/17 07:25:29;;;;;;;17.90;15.48;;;;;;;26.80;44.54;100118.03;4972265;28;20086;-73
2022/08/17 07:27:59;;;;;;;19.98;18.20;;;;;;;26.98;44.13;100123.78;4972179;28;20130;-73
2022/08/17 07:30:27;;;;;;;18.98;17.13;;;;;;;27.14;43.74;100119.81;4972210;28;20073;-73
2022/08/17 07:33:11;;;;;;;19.60;17.52;;;;;;;27.24;43.09;100112.69;4971965;28;20552;-73
2022/08/17 07:35:42;;;;;;;16.75;15.10;;;;;;;27.25;43.13;100115.28;4969855;28;20035;-73
2022/08/17 07:38:23;;;;;;;16.20;14.60;;;;;;;27.36;42.93;100108.97;4972364;28;20509;-73
2022/08/17 07:41:01;;;;;;;18.48;16.70;;;;;;;27.40;42.85;100113.13;4969854;28;20039;-73
2022/08/17 07:43:45;;;;;;;15.18;13.88;;;;;;;27.46;43.08;100118.06;4971990;28;20429;-73
2022/08/17 07:49:06;;;;;;;17.27;15.63;;;;;;;27.87;41.32;100121.00;4971661;28;20034;-74
2022/08/17 07:51:42;;;;;;;19.95;17.95;;;;;;;27.88;39.54;100120.03;4973053;28;20031;-73
2022/08/17 07:54:13;;;;;;;23.75;21.23;;;;;;;27.86;40.16;100117.44;4972178;28;20073;-73
2022/08/17 07:56:46;;;;;;;17.70;16.00;;;;;;;27.96;40.57;100121.09;4965590;28;20662;-73
2022/08/17 07:59:17;;;;;;;16.80;15.13;;;;;;;28.07;39.14;100124.75;4971981;28;20038;-74
2022/08/17 08:01:57;;;;;;;16.70;15.10;;;;;;;28.15;39.25;100120.38;4973443;28;20162;-74
2022/08/17 08:04:35;;;;;;;20.67;18.77;;;;;;;28.28;39.72;100120.16;4974453;28;20073;-73
2022/08/17 08:07:05;;;;;;;19.63;17.88;;;;;;;28.39;39.24;100117.38;4972038;28;20038;-73
2022/08/17 08:09:38;;;;;;;15.77;14.38;;;;;;;28.57;39.47;100122.22;4970789;28;20493;-74
2022/08/17 08:12:32;;;;;;;19.70;17.98;;;;;;;28.72;38.15;100110.00;4973255;28;20061;-74
2022/08/17 08:15:17;;;;;;;21.52;19.38;;;;;;;28.89;38.96;100116.63;4966008;28;20046;-73
2022/08/17 08:17:50;;;;;;;23.33;18.67;;;;;;;29.03;38.36;100112.69;4970381;28;20393;-74
2022/08/17 08:20:17;;;;;;;18.38;16.63;;;;;;;29.12;39.31;100105.59;4974876;28;20508;-73
2022/08/17 08:22:54;;;;;;;18.58;16.85;;;;;;;29.23;37.29;100103.59;4975125;28;20045;-72
2022/08/17 08:26:06;;;;;;;25.85;16.52;;;;;;;29.43;37.52;100115.38;4971763;28;20461;-73
2022/08/17 08:29:02;;;;;;;19.17;17.42;;;;;;;29.58;36.83;100113.13;4961623;28;20051;-74
2022/08/17 08:31:36;;;;;;;19.85;18.00;;;;;;;29.73;36.51;100112.72;4971402;28;20043;-73
2022/08/17 08:34:35;;;;;;;15.52;13.27;;;;;;;29.77;35.91;100103.28;4975051;28;20086;-73
2022/08/17 08:37:42;;;;;;;21.60;17.33;;;;;;;29.93;36.53;100109.84;4974420;28;20042;-73
2022/08/17 08:40:10;;;;;;;17.48;15.85;;;;;;;30.10;36.75;100107.38;4973006;28;20058;-73
2022/08/17 08:43:06;;;;;;;19.75;17.45;;;;;;;30.26;36.07;100101.38;4974878;28;20039;-73
2022/08/17 08:45:56;;;;;;;18.52;13.43;;;;;;;30.17;35.75;100107.66;4974790;28;20050;-74
2022/08/17 08:48:41;;;;;;;15.60;13.85;;;;;;;30.27;36.00;100094.94;4971229;28;20481;-73
2022/08/17 08:51:26;;;;;;;16.65;15.20;;;;;;;30.43;34.82;100100.63;4977559;28;20041;-74
2022/08/17 08:54:19;;;;;;;20.17;18.13;;;;;;;30.55;35.44;100102.16;4973717;28;20039;-73
2022/08/17 08:56:53;;;;;;;20.50;18.25;;;;;;;30.57;34.95;100100.13;4974165;28;20050;-73
2022/08/17 08:59:31;;;;;;;18.33;16.50;;;;;;;30.65;34.88;100107.53;4972006;28;20543;-74
2022/08/17 09:02:19;;;;;;;25.17;21.58;;;;;;;30.72;35.14;100100.50;4974334;28;20625;-73
2022/08/17 09:05:06;;;;;;;21.80;19.55;;;;;;;30.88;34.19;100102.59;4974577;28;20053;-74
2022/08/17 09:07:43;;;;;;;20.70;18.80;;;;;;;30.95;34.09;100102.88;4970310;28;20038;-74
2022/08/17 09:10:24;;;;;;;21.10;19.00;;;;;;;31.08;34.00;100099.81;4971845;28;20038;-74
2022/08/17 09:13:08;;;;;;;19.52;17.88;;;;;;;31.16;33.20;100100.75;4970592;28;20042;-73
2022/08/17 09:15:43;;;;;;;19.67;17.83;;;;;;;31.19;33.67;100107.75;4974516;28;20042;-74
2022/08/17 09:18:18;;;;;;;23.13;18.83;;;;;;;31.39;32.99;100101.19;4971196;28;20485;-74
2022/08/17 09:20:54;;;;;;;20.95;19.05;;;;;;;31.54;32.73;100103.38;4975521;28;20031;-73
2022/08/17 09:23:41;;;;;;;17.75;16.27;;;;;;;31.52;31.57;100099.94;4972635;28;20413;-73
2022/08/17 09:26:29;;;;;;;18.25;16.48;;;;;;;31.51;31.74;100103.69;4971980;28;20413;-73
2022/08/17 09:29:00;;;;;;;16.27;14.70;;;;;;;31.54;32.32;100103.38;4971600;28;20042;-73
2022/08/17 09:31:34;;;;;;;21.58;20.00;;;;;;;31.80;32.48;100092.53;4974026;28;20093;-74
2022/08/17 09:34:04;;;;;;;20.33;18.02;;;;;;;32.02;32.74;100094.81;4970354;28;20039;-74
2022/08/17 09:36:39;;;;;;;18.40;16.90;;;;;;;32.22;32.22;100092.72;4974029;28;20050;-73
2022/08/17 09:39:29;;;;;;;17.08;15.82;;;;;;;32.26;30.45;100088.66;4972575;28;20049;-74
2022/08/17 09:42:03;;;;;;;20.13;18.52;;;;;;;32.22;30.92;100083.69;4972978;28;20074;-74
2022/08/17 09:44:39;;;;;;;21.45;19.58;;;;;;;32.26;30.45;100080.47;4972897;28;20501;-73
2022/08/17 09:47:10;;;;;;;20.23;18.80;;;;;;;32.38;30.39;100088.41;4973722;28;20417;-74
2022/08/17 09:49:49;;;;;;;20.20;18.80;;;;;;;32.57;30.54;100085.47;4970603;28;20034;-74
2022/08/17 09:52:17;;;;;;;24.08;21.30;;;;;;;32.72;30.81;100075.66;4972677;28;20062;-73
2022/08/17 09:54:44;;;;;;;22.42;20.08;;;;;;;32.74;31.01;100076.31;4970117;28;20093;-73
2022/08/17 09:57:12;;;;;;;17.75;16.27;;;;;;;32.73;30.35;100073.78;4973602;28;20113;-73
2022/08/17 10:00:08;;;;;;;25.85;23.92;;;;;;;32.76;30.55;100069.88;4973497;28;20053;-73
2022/08/17 10:02:59;;;;;;;18.90;17.70;;;;;;;32.88;29.62;100084.91;4973191;28;20158;-73
2022/08/17 10:05:40;;;;;;;16.92;15.50;;;;;;;32.72;30.04;100074.78;4973640;28;20121;-73
2022/08/17 10:08:31;;;;;;;15.45;14.43;;;;;;;32.60;29.54;100074.22;4971555;28;20038;-74
2022/08/17 10:11:17;;;;;;;18.73;16.70;;;;;;;32.67;29.31;100069.81;4954458;28;20058;-74
2022/08/17 10:13:52;;;;;;;16.75;15.65;;;;;;;32.73;29.16;100074.63;4973408;28;20624;-74
2022/08/17 10:16:36;;;;;;;19.17;17.73;;;;;;;32.76;29.09;100078.91;4971503;28;20113;-74
2022/08/17 10:19:07;;;;;;;18.23;16.95;;;;;;;32.69;29.78;100072.38;4971383;28;20084;-73
2022/08/17 10:27:23;;;;;;;22.25;20.73;;;;;;;32.89;29.48;100073.84;4973134;28;20408;-74
2022/08/17 10:29:56;;;;;;;24.15;21.00;;;;;;;32.72;28.67;100072.03;4972583;28;20046;-74
2022/08/17 10:32:56;;;;;;;19.25;18.00;;;;;;;32.62;28.82;100066.72;4969564;28;20030;-73
2022/08/17 10:35:29;;;;;;;20.73;19.00;;;;;;;32.95;29.00;100064.13;4971062;28;20035;-74
2022/08/17 10:38:20;;;;;;;21.00;19.48;;;;;;;33.47;27.70;100060.34;4970595;28;20042;-74
2022/08/17 10:41:14;;;;;;;20.23;18.92;;;;;;;33.65;26.52;100054.75;4972466;28;20456;-74
2022/08/17 10:44:07;;;;;;;19.40;18.23;;;;;;;33.90;26.01;100056.44;4966638;28;20109;-73
2022/08/17 10:47:16;;;;;;;21.20;19.65;;;;;;;34.02;25.97;100054.22;4969911;28;20046;-74
2022/08/17 10:49:52;;;;;;;18.30;16.73;;;;;;;33.99;26.01;100049.94;4970221;28;20607;-74
2022/08/17 10:52:26;;;;;;;18.90;17.70;;;;;;;33.83;26.40;100055.44;4972515;28;20386;-74
2022/08/17 10:54:55;;;;;;;19.00;17.52;;;;;;;33.80;26.81;100050.31;4972739;28;20035;-74
2022/08/17 10:57:32;;;;;;;19.23;18.00;;;;;;;33.79;26.49;100051.31;4972644;28;20049;-74
2022/08/17 11:00:09;;;;;;;19.88;18.13;;;;;;;33.65;26.24;100049.28;4972389;28;20046;-75
2022/08/17 11:02:54;;;;;;;16.83;15.80;;;;;;;33.55;26.23;100047.53;4969379;28;20042;-74
2022/08/17 11:05:29;;;;;;;18.98;17.67;;;;;;;33.81;25.98;100049.28;4971913;28;20125;-74
2022/08/17 11:08:09;;;;;;;19.48;18.27;;;;;;;34.05;25.56;100042.91;4972548;28;20049;-73
2022/08/17 11:11:22;;;;;;;21.42;20.13;;;;;;;34.40;25.61;100038.06;4969953;28;20094;-74
2022/08/17 11:14:34;;;;;;;22.00;20.20;;;;;;;34.84;24.97;100034.84;4938322;28;20050;-74
2022/08/17 11:17:19;;;;;;;19.05;17.40;;;;;;;35.13;23.96;100036.94;4969891;28;20117;-73
2022/08/17 11:19:59;;;;;;;19.75;18.52;;;;;;;35.40;23.59;100031.94;4974400;28;20062;-73
2022/08/17 11:22:56;;;;;;;18.30;16.88;;;;;;;35.23;23.65;100031.22;4968816;28;20050;-73
2022/08/17 11:25:40;;;;;;;19.92;18.48;;;;;;;35.52;23.00;100035.97;4971605;28;20042;-74
2022/08/17 11:28:18;;;;;;;20.40;18.95;;;;;;;35.62;22.58;100031.13;4970862;28;20374;-73
2022/08/17 11:30:47;;;;;;;19.20;18.00;;;;;;;35.85;23.15;100033.84;4970678;28;20490;-74
2022/08/17 11:33:30;;;;;;;17.58;16.48;;;;;;;35.67;22.97;100034.16;4976241;28;20109;-74
2022/08/17 11:36:10;;;;;;;24.40;22.35;;;;;;;35.73;23.12;100029.81;4973571;28;20031;-74
2022/08/17 11:38:51;;;;;;;18.55;17.25;;;;;;;35.53;23.00;100026.72;4976240;28;20038;-73
2022/08/17 11:41:36;;;;;;;18.48;17.17;;;;;;;35.39;23.36;100022.00;4976143;28;20101;-74
2022/08/17 11:44:14;;;;;;;16.98;15.77;;;;;;;35.16;23.10;100025.59;4974232;28;20086;-73
2022/08/17 11:53:05;;;;;;;16.58;15.68;;;;;;;35.47;23.15;100013.72;4974584;28;20046;-73
2022/08/17 11:55:31;;;;;;;19.30;18.00;;;;;;;35.40;23.03;100010.00;4975834;28;20038;-74
2022/08/17 11:58:28;;;;;;;23.13;21.60;;;;;;;35.78;21.68;100014.50;5003639;23;20104;-75
2022/08/17 12:00:59;;;;;;;20.30;19.08;;;;;;;35.90;21.86;100011.31;4983750;28;20035;-75
2022/08/17 12:03:30;;;;;;;21.42;20.05;;;;;;;36.15;21.46;100003.69;4993741;28;20053;-75
2022/08/17 12:06:05;;;;;;;20.05;18.67;;;;;;;36.31;21.08;100019.16;4991442;28;20042;-75
2022/08/17 12:08:37;;;;;;;17.55;16.45;;;;;;;36.20;21.23;100004.84;4993706;28;20034;-75
2022/08/17 12:11:07;;;;;;;18.08;16.98;;;;;;;35.53;21.99;100010.25;4994929;28;20420;-75